Aeroporto :
LOGIN :

Iscrizione | Disclaimer

   EN    FR    IT 

 










Sommario :    VFR   VFR Marginale   IFR   IFR Intensivo   IFR Molto Intensivo
Visibilità : 
Base nubi : 
>= 8 km
>= 3000ft
5 / 8 km
1000 / 3000 ft
1500m / 5 km
500 / 1000 ft
800 / 1500m
200 / 500 ft
< 800m
< 200 ft
Simboli :   Temporali  Nebbia  Neve Forte  Precipitazioni Forti  Vento > 20 kt
SIGMETs :   Varie  Temporali  Ghiacco  Turbolenza  Onda orograficha  Ceneri Vulcaniche







- Altitudine del aeroporto : 137 ft


LIPS - Istrana AFB Treviso

ULTIMO METAR :
  • 240455Z 04004KT 2400 BR SCT025 BKN060 16/15 Q1014 RMK BKN VIS MIN 2400 WIND THR26 00000KT WIND THR08 00000KT YLO

METARs OBSOLETI :
  • 240355Z 04004KT 1600 BR BKN060 16/14 Q1014 RMK BKN VIS MIN 1600 WIND THR26 00000KT WIND THR08 04004KT YLO
  • 240336Z 00000KT 0100 FG BKN060 17/16 Q1014 RMK BKN VIS MIN 0100 WIND THR26 00000KT WIND THR08 00000KT RED

TAF TAF LIPS
Valido dal 24 a 03 ore il 24 a 12 ore UTC


240200Z 2403/2412 VRB04KT 8000 SCT030 BKN060
TEMPO 2403/2406 5000 RA BR
PROB40
TEMPO 2406/2412 5000 SHRA FEW020CB SCT030
Nessun NOTAM noto per questo aeroporto.



MetMap, La meteo Aeronautica in un colpo d'occhio ! - Copyright ORBIFLY Dicembre 2007 - Disclaimer

ORBIFLY MET'MAP TEAM :

Programmazione e sviluppo : Alexandra Zaïnal
Concezione e sviluppo : Baudouin d'Aumeries
Co-Programmazione e sviluppo : Marc-Olivier Méhu
Supporto tecnico e logistico : Manuel Goepfert
Aiuto per la traduzione : Arnaldo La Scala

Contatto : metmap@orbifly.com




FONTI E CREDITI :

   NOAA